Fairbanks, AK

3:07 PM AKDT on March 27, 2015 (GMT -0800)
Fairbanks International | | Change Station
CLOSE
Current Station
Airport
Location: Fairbanks,
Elevation: 433 ft
Nearby Weather Stations

Elev 433 ft 64.80 °N, 147.88 °W | Updated 14 minutes ago

Mostly Cloudy
Mostly Cloudy
46 °F
Feels Like 42 °F
N
7
Wind Variable Wind from South

Today
High -- | Low -- °F
--% Chance of Precip.
Yesterday
High -- | Low -- °F
Precip. -- in
7:26 AM 8:28 PM
First Quarter, 56% visible
Pressure 29.55 in
Visibility 10.0 miles
Clouds Few 6000 ft
Scattered Clouds 8000 ft
Mostly Cloudy 17000 ft
Windchill 42 °F
Dew Point 24 °F
Humidity 42%
Rainfall 0.00 in
Snow Depth Not available.
UV 1 out of 12
Pollen Not available.
Air Quality Not available.
Flu Activity Not available.
METAR PAFA 272253Z 19006KT 10SM FEW060 SCT080 BKN170 08/M04 A2952 RMK AO2 SLP004 T00781044

More Conditions Fewer Conditions

Pressure 29.55 in
Visibility 10.0 miles
Clouds Few 6000 ft
Scattered Clouds 8000 ft
Mostly Cloudy 17000 ft
Windchill 42 °F
Dew Point 24 °F
Humidity 42%
Rainfall 0.00 in
Snow Depth Not available.
UV 1 out of 12
Pollen Not available.
Air Quality Not available.
Flu Activity Not available.
METAR PAFA 272253Z 19006KT 10SM FEW060 SCT080 BKN170 08/M04 A2952 RMK AO2 SLP004 T00781044

More Conditions Fewer Conditions

10-Day Weather Forecast

Almanac

Astronomy

Mar. 27, 2015 Rise Set
Actual Time
Civil Twilight
Nautical Twilight
Astronomical Twilight
Moon
Length of Visible Light
Length of Day
Tomorrow will be .
, % of the Moon is Illuminated

Today's Extremes

State Highs State Lows

Community

WunderPhotos

Upload Photos

1,808,872 photos uploaded!

WunderBlogs® & News

Nearby

Air Quality

  Air Quality AQ Index Pollutant
Not available.

Snow Depth

Station Depth Elevation

Earthquake Activity

City Distance Mag. Time & Date
Minimum magnitude displayed is 2.5.

Coastal Water Temperatures

Place Temperature

Stations

Nearby Weather Stations

Station Location Temp. Windchill Dew Point Humidity Wind Precip. Elev Updated Type